Time;durP1;ratioP1;P1;durP2;ratioP2;P2;SDS_P1;SDS_P2;PMS_P1;PMS_P2;Temp;Humidity;BMP_temperature;BMP_pressure;BME280_temperature;BME280_humidity;BME280_pressure;Samples;Min_cycle;Max_cycle;Signal;HPM_P1;HPM_P2
2023/01/17 00:00:57;;;;;;;5.40;3.53;;;;;;;8.49;58.49;98196.34;4948576;28;20018;-92
2023/01/17 00:03:22;;;;;;;6.70;3.55;;;;;;;8.58;58.74;98207.25;4978165;28;20026;-90
2023/01/17 00:11:23;;;;;;;5.47;3.28;;;;;;;8.63;58.46;98198.34;4974647;28;20509;-91
2023/01/17 00:13:48;;;;;;;4.63;3.13;;;;;;;8.72;57.64;98212.75;4979281;28;20030;-91
2023/01/17 00:16:14;;;;;;;5.30;3.42;;;;;;;8.68;57.51;98204.47;4981175;28;20030;-92
2023/01/17 00:26:01;;;;;;;5.25;3.72;;;;;;;8.54;57.52;98182.06;4946111;28;20041;-92
2023/01/17 01:35:58;;;;;;;5.80;3.78;;;;;;;8.87;57.04;98091.00;4961566;28;20497;-92
2023/01/17 01:38:24;;;;;;;4.00;2.67;;;;;;;9.00;57.31;98119.00;4945717;28;20030;-92
2023/01/17 01:40:52;;;;;;;4.78;2.83;;;;;;;8.89;57.39;98111.09;4951315;28;20129;-91
2023/01/17 01:43:19;;;;;;;3.75;2.53;;;;;;;8.95;57.31;98122.56;4956521;28;20045;-92
2023/01/17 01:45:53;;;;;;;4.45;2.67;;;;;;;8.96;57.28;98129.50;4960248;28;20026;-91
2023/01/17 01:48:34;;;;;;;5.15;3.40;;;;;;;9.08;57.41;98134.47;4957462;28;20038;-93
2023/01/17 01:51:08;;;;;;;4.00;2.67;;;;;;;8.96;57.93;98113.41;4976660;28;20029;-92
2023/01/17 01:53:35;;;;;;;4.68;2.90;;;;;;;9.05;57.37;98129.69;4963780;28;20304;-93
2023/01/17 01:56:00;;;;;;;6.22;3.40;;;;;;;8.90;57.49;98106.50;4958126;28;20026;-93
2023/01/17 01:58:26;;;;;;;4.88;3.08;;;;;;;9.01;57.52;98107.19;4960984;28;20030;-92
2023/01/17 02:00:52;;;;;;;5.93;2.95;;;;;;;8.96;57.33;98104.56;4957375;28;20401;-92
2023/01/17 02:03:23;;;;;;;5.38;2.95;;;;;;;8.98;57.64;98119.28;4961054;28;20029;-92
2023/01/17 02:05:49;;;;;;;3.67;2.63;;;;;;;8.95;57.62;98113.72;4949120;28;20027;-92
2023/01/17 02:08:16;;;;;;;3.65;2.80;;;;;;;8.80;57.57;98099.41;4960813;28;20034;-93
2023/01/17 02:10:42;;;;;;;4.25;2.65;;;;;;;8.72;58.27;98094.69;4961173;28;20030;-92
2023/01/17 02:13:08;;;;;;;4.93;2.88;;;;;;;8.86;57.80;98119.72;4961029;28;20061;-92
2023/01/17 02:15:58;;;;;;;3.83;2.53;;;;;;;8.94;57.67;98126.31;4962565;28;20034;-92
2023/01/17 02:18:33;;;;;;;5.90;2.80;;;;;;;9.01;57.70;98126.00;4998021;28;20053;-92
2023/01/17 02:21:13;;;;;;;2.97;2.22;;;;;;;8.84;57.60;98097.75;4984557;28;20050;-92
2023/01/17 02:24:02;;;;;;;4.80;2.45;;;;;;;9.10;57.32;98121.56;4964596;28;20058;-91
2023/01/17 02:26:30;;;;;;;4.75;3.47;;;;;;;9.04;57.10;98111.97;4968147;28;20427;-91
2023/01/17 02:29:05;;;;;;;3.83;2.70;;;;;;;9.11;57.65;98128.53;4997349;28;20033;-92
2023/01/17 02:32:10;;;;;;;3.35;2.30;;;;;;;9.08;56.96;98134.47;4989391;28;20092;-92
2023/01/17 02:34:40;;;;;;;4.32;2.65;;;;;;;9.09;57.21;98131.50;4960300;28;20034;-91
2023/01/17 02:37:20;;;;;;;5.95;2.47;;;;;;;9.14;56.79;98144.06;4971424;28;20113;-91
2023/01/17 02:40:29;;;;;;;3.47;2.53;;;;;;;9.28;57.13;98146.84;4990336;28;20031;-91
2023/01/17 02:43:01;;;;;;;4.03;2.83;;;;;;;9.34;56.93;98152.91;4966611;28;20050;-91
2023/01/17 02:45:27;;;;;;;4.32;2.85;;;;;;;9.34;56.71;98159.09;4941455;28;20493;-92
2023/01/17 02:47:54;;;;;;;4.15;2.50;;;;;;;9.26;56.66;98139.06;4935785;28;20071;-91
2023/01/17 02:50:23;;;;;;;5.53;3.03;;;;;;;9.38;55.69;98141.31;4941003;28;20113;-91
2023/01/17 02:53:10;;;;;;;5.68;2.63;;;;;;;9.51;55.77;98162.06;4942192;28;20035;-92
2023/01/17 02:55:53;;;;;;;5.13;2.80;;;;;;;9.52;55.45;98160.19;4968060;28;20046;-92
2023/01/17 02:58:21;;;;;;;5.28;2.95;;;;;;;9.49;55.76;98158.09;4949885;28;20451;-91
2023/01/17 03:01:10;;;;;;;4.22;2.53;;;;;;;9.45;56.25;98157.84;4955909;28;20085;-92
2023/01/17 03:04:02;;;;;;;4.05;2.55;;;;;;;9.35;56.17;98149.16;4959704;28;20118;-92
2023/01/17 03:06:39;;;;;;;6.88;3.72;;;;;;;9.43;56.40;98151.97;4946535;28;20030;-92
2023/01/17 03:09:05;;;;;;;4.55;2.80;;;;;;;9.39;57.00;98174.34;4959522;28;20105;-92
2023/01/17 03:11:30;;;;;;;3.72;2.60;;;;;;;9.41;57.44;98158.72;4943714;28;20521;-92
2023/01/17 03:13:57;;;;;;;5.85;3.22;;;;;;;9.33;57.83;98148.66;4944120;28;20571;-92
2023/01/17 03:16:26;;;;;;;4.68;2.97;;;;;;;9.47;57.45;98139.56;4979551;28;20018;-92
2023/01/17 03:18:52;;;;;;;5.40;3.38;;;;;;;9.41;57.45;98129.97;4963216;28;20041;-92
2023/01/17 03:21:18;;;;;;;5.15;2.90;;;;;;;9.33;58.15;98125.25;4978623;28;20042;-91
2023/01/17 03:23:44;;;;;;;4.88;2.83;;;;;;;9.33;58.40;98117.19;4961548;28;20030;-89
2023/01/17 03:26:09;;;;;;;5.57;3.15;;;;;;;9.33;58.74;98094.91;4960974;28;20045;-91
2023/01/17 03:28:36;;;;;;;5.47;3.25;;;;;;;9.18;58.95;98085.19;4962940;28;20089;-91
2023/01/17 03:31:01;;;;;;;6.45;3.55;;;;;;;9.30;58.53;98069.44;4957058;28;20026;-91
2023/01/17 03:33:29;;;;;;;6.57;3.72;;;;;;;9.38;59.06;98082.22;4951220;28;20030;-91
2023/01/17 03:35:56;;;;;;;5.43;3.22;;;;;;;9.20;59.22;98050.81;4973939;28;20481;-92
2023/01/17 03:38:25;;;;;;;6.07;3.42;;;;;;;9.23;59.22;98055.56;4966064;28;20378;-91
2023/01/17 03:40:51;;;;;;;4.95;3.15;;;;;;;9.35;58.90;98049.75;4986375;28;20013;-92
2023/01/17 03:43:17;;;;;;;9.73;3.58;;;;;;;9.36;58.41;98043.28;4951488;28;20122;-91
2023/01/17 03:45:43;;;;;;;4.55;3.55;;;;;;;9.41;58.55;98046.69;4980465;28;20385;-91
2023/01/17 03:48:09;;;;;;;3.92;2.78;;;;;;;9.46;58.05;98035.88;4970949;28;20034;-91
2023/01/17 03:50:37;;;;;;;5.72;3.05;;;;;;;9.51;58.00;98032.31;4968352;28;20026;-90
2023/01/17 03:53:03;;;;;;;7.50;3.50;;;;;;;9.54;58.10;98023.63;4988250;28;20030;-90
2023/01/17 03:55:29;;;;;;;5.97;3.05;;;;;;;9.53;58.34;98034.72;4963709;28;20390;-92
2023/01/17 03:57:56;;;;;;;3.50;2.53;;;;;;;9.43;58.45;98024.91;4989332;28;20128;-93
2023/01/17 04:00:22;;;;;;;4.93;2.88;;;;;;;9.64;58.44;98046.88;4956987;28;20022;-92
2023/01/17 04:02:48;;;;;;;6.68;3.35;;;;;;;9.63;58.31;98029.94;4960553;28;20050;-93
2023/01/17 04:05:13;;;;;;;6.13;3.05;;;;;;;9.49;58.85;98031.81;4945296;28;20406;-92
2023/01/17 04:07:39;;;;;;;4.25;2.70;;;;;;;9.54;58.69;98015.59;4941759;28;20031;-92
2023/01/17 04:10:05;;;;;;;5.45;3.28;;;;;;;9.68;58.52;98021.78;4926935;28;20105;-92
2023/01/17 04:12:32;;;;;;;5.20;2.88;;;;;;;9.58;58.50;98013.09;4958744;28;20026;-92
2023/01/17 04:14:58;;;;;;;3.88;3.00;;;;;;;9.66;58.28;98012.44;4961571;28;20026;-92
2023/01/17 04:17:27;;;;;;;4.03;2.55;;;;;;;9.78;58.45;98025.41;4978035;28;20088;-92
2023/01/17 04:19:52;;;;;;;4.47;3.13;;;;;;;9.83;58.43;98020.72;4932876;28;1211698;-92
2023/01/17 04:22:18;;;;;;;4.57;2.80;;;;;;;9.88;57.78;98006.41;4941959;28;20037;-92
2023/01/17 04:24:44;;;;;;;4.22;2.85;;;;;;;9.84;57.78;98002.72;4943104;28;20410;-92
2023/01/17 04:27:12;;;;;;;6.13;3.30;;;;;;;9.93;57.95;98016.25;4959297;28;20093;-92
2023/01/17 04:29:39;;;;;;;6.55;3.00;;;;;;;10.04;57.74;98041.84;4943485;28;20010;-92
2023/01/17 04:32:04;;;;;;;3.78;2.75;;;;;;;9.96;57.87;98035.28;4958697;28;20097;-92
2023/01/17 04:34:30;;;;;;;5.00;2.50;;;;;;;9.99;57.84;98033.88;4942768;28;20478;-92
2023/01/17 04:36:55;;;;;;;5.10;3.00;;;;;;;10.01;58.00;98018.25;4974048;28;20177;-90
2023/01/17 04:39:21;;;;;;;5.90;3.20;;;;;;;10.01;58.08;98029.81;4942944;28;20038;-92
2023/01/17 04:41:49;;;;;;;4.13;2.70;;;;;;;10.10;58.04;98038.75;4958076;28;20031;-92
2023/01/17 04:44:18;;;;;;;4.80;2.70;;;;;;;10.05;58.19;98011.97;4975562;28;20031;-91
2023/01/17 04:46:44;;;;;;;3.58;2.40;;;;;;;10.24;58.41;98033.41;4966905;28;20026;-92
2023/01/17 04:49:11;;;;;;;4.75;2.88;;;;;;;10.25;57.91;98010.78;4972094;28;20089;-92
2023/01/17 04:51:38;;;;;;;4.55;2.50;;;;;;;10.34;57.83;98010.13;4971683;28;20096;-92
2023/01/17 04:54:04;;;;;;;6.35;2.30;;;;;;;10.40;57.96;98019.69;4966992;28;20516;-92
2023/01/17 04:56:30;;;;;;;4.28;2.40;;;;;;;10.50;57.62;98014.09;4984171;28;20026;-91
2023/01/17 04:58:57;;;;;;;5.05;2.80;;;;;;;10.57;57.90;98014.47;4943418;29;20046;-92
2023/01/17 05:01:24;;;;;;;4.75;2.65;;;;;;;10.58;58.11;98023.34;4955097;29;20402;-91
2023/01/17 05:03:49;;;;;;;6.57;3.20;;;;;;;10.59;58.13;98036.50;4954143;28;20026;-91
2023/01/17 05:06:17;;;;;;;3.53;2.90;;;;;;;10.75;58.38;98038.84;4959867;28;20402;-92
2023/01/17 05:08:43;;;;;;;8.55;3.10;;;;;;;10.60;58.78;98035.38;4939045;28;20034;-92
2023/01/17 05:11:11;;;;;;;8.75;3.72;;;;;;;10.67;58.59;98038.47;4973558;28;20034;-91
2023/01/17 05:13:37;;;;;;;4.90;2.88;;;;;;;10.65;58.12;98034.50;4990494;28;20025;-91
2023/01/17 05:16:03;;;;;;;4.95;2.58;;;;;;;10.60;58.41;98031.91;4990129;28;20409;-91
2023/01/17 05:18:29;;;;;;;5.57;3.42;;;;;;;10.80;58.89;98055.69;4958517;28;20022;-91
2023/01/17 05:21:00;;;;;;;8.65;4.03;;;;;;;10.71;59.28;98050.25;4961061;28;20050;-90
2023/01/17 05:23:26;;;;;;;4.43;3.08;;;;;;;10.81;59.39;98048.41;4977667;28;20033;-93
2023/01/17 05:25:52;;;;;;;4.90;3.42;;;;;;;10.73;59.67;98047.25;4963641;28;20105;-93
2023/01/17 05:28:18;;;;;;;8.18;4.13;;;;;;;10.74;59.52;98051.53;4961372;28;20050;-93
2023/01/17 05:30:44;;;;;;;7.78;4.22;;;;;;;10.87;59.81;98074.13;4977653;28;20079;-90
2023/01/17 05:33:09;;;;;;;12.25;5.07;;;;;;;10.82;58.83;98053.50;4962987;28;20031;-96
2023/01/17 05:35:36;;;;;;;7.10;3.30;;;;;;;11.01;58.55;98068.72;4965570;28;20446;-93
2023/01/17 05:38:02;;;;;;;7.22;3.38;;;;;;;11.01;58.10;98077.59;4963852;28;20027;-94
2023/01/17 05:40:30;;;;;;;7.72;3.38;;;;;;;10.99;58.43;98063.63;4994094;28;20031;-96
2023/01/17 05:42:58;;;;;;;8.45;3.83;;;;;;;11.05;58.17;98072.41;4978633;28;20599;-95
2023/01/17 05:45:25;;;;;;;8.85;3.88;;;;;;;11.09;58.18;98090.34;4947451;28;20117;-91
2023/01/17 05:47:52;;;;;;;6.15;3.00;;;;;;;11.25;58.97;98122.34;4978828;28;20081;-94
2023/01/17 05:50:22;;;;;;;7.43;4.03;;;;;;;11.12;58.99;98092.44;4967184;28;20119;-94
2023/01/17 05:52:53;;;;;;;7.35;3.55;;;;;;;11.19;59.11;98100.09;4966636;28;20030;-94
2023/01/17 05:55:21;;;;;;;5.93;3.47;;;;;;;11.25;59.26;98108.88;4950011;28;20493;-96
2023/01/17 05:57:49;;;;;;;7.53;3.60;;;;;;;11.37;59.23;98119.94;4951004;28;20069;-94
2023/01/17 06:00:19;;;;;;;7.55;3.50;;;;;;;11.46;59.70;98136.16;4955455;28;20022;-92
2023/01/17 06:02:45;;;;;;;8.88;3.42;;;;;;;11.35;59.65;98132.91;4993714;28;20160;-93
2023/01/17 06:05:16;;;;;;;9.20;4.10;;;;;;;11.44;59.39;98141.84;4984056;28;20038;-94
2023/01/17 06:07:44;;;;;;;5.25;3.75;;;;;;;11.56;59.00;98165.59;4980870;28;20026;-92
2023/01/17 06:10:10;;;;;;;5.95;3.60;;;;;;;11.56;59.15;98157.50;4997297;28;20041;-92
2023/01/17 06:12:37;;;;;;;5.72;3.78;;;;;;;11.58;59.19;98162.56;5000250;28;20022;-92
2023/01/17 06:15:03;;;;;;;6.00;4.00;;;;;;;11.52;59.34;98170.78;4969840;28;20045;-93
2023/01/17 06:17:29;;;;;;;6.20;3.70;;;;;;;11.62;59.37;98166.25;4975687;28;20030;-94
2023/01/17 06:19:54;;;;;;;5.43;3.55;;;;;;;11.72;58.97;98187.59;4976290;28;20125;-92
2023/01/17 06:22:24;;;;;;;5.65;4.35;;;;;;;11.70;59.30;98179.00;4975324;28;20049;-93
2023/01/17 06:24:49;;;;;;;8.55;4.28;;;;;;;11.59;59.21;98161.47;4979011;28;20022;-95
2023/01/17 06:27:17;;;;;;;7.00;3.70;;;;;;;11.56;59.65;98162.88;4972270;28;20081;-92
2023/01/17 06:29:42;;;;;;;6.53;4.45;;;;;;;11.57;59.84;98166.38;4980087;28;20034;-93
2023/01/17 06:32:08;;;;;;;12.82;4.38;;;;;;;11.68;59.69;98173.13;4961450;28;20731;-93
2023/01/17 06:34:36;;;;;;;6.45;4.13;;;;;;;11.61;60.30;98160.06;4964086;28;20413;-93
2023/01/17 06:37:01;;;;;;;6.80;4.28;;;;;;;11.66;59.95;98173.44;4991973;28;20028;-94
2023/01/17 06:39:31;;;;;;;8.25;4.18;;;;;;;11.66;60.01;98162.66;4969624;28;20026;-92
2023/01/17 06:41:56;;;;;;;10.38;4.43;;;;;;;11.72;59.71;98166.81;4985327;28;20041;-92
2023/01/17 06:44:22;;;;;;;9.48;4.25;;;;;;;11.84;59.49;98160.88;4986042;28;20034;-92
2023/01/17 06:47:07;;;;;;;9.80;4.85;;;;;;;11.88;60.20;98167.28;4990976;28;20041;-93
2023/01/17 06:49:35;;;;;;;6.05;3.75;;;;;;;11.85;59.23;98148.16;5011657;28;20018;-96
2023/01/17 06:52:27;;;;;;;7.88;4.53;;;;;;;11.91;59.92;98165.84;5000724;28;20027;-91
2023/01/17 06:55:14;;;;;;;8.98;4.88;;;;;;;11.81;59.87;98147.22;4954471;29;20152;-89
2023/01/17 06:57:40;;;;;;;7.22;4.57;;;;;;;11.93;59.60;98150.97;4939926;29;20066;-92
2023/01/17 07:00:06;;;;;;;12.15;8.57;;;;;;;12.00;59.25;98149.75;4920110;29;20463;-90
2023/01/17 07:02:32;;;;;;;14.98;9.80;;;;;;;11.98;59.61;98143.88;4922302;29;20043;-92
2023/01/17 07:04:57;;;;;;;14.63;7.38;;;;;;;11.98;59.35;98141.16;4905119;29;20063;-94
2023/01/17 07:07:23;;;;;;;9.18;6.60;;;;;;;12.07;59.50;98153.59;4906458;29;20072;-91
2023/01/17 07:09:49;;;;;;;11.13;4.65;;;;;;;12.13;59.09;98160.44;4918914;29;20044;-90
2023/01/17 07:12:15;;;;;;;11.65;3.95;;;;;;;12.07;59.03;98142.78;4897903;29;20044;-88
2023/01/17 07:14:57;;;;;;;11.88;5.20;;;;;;;12.02;59.33;98134.84;4921239;29;20121;-94
2023/01/17 07:17:23;;;;;;;11.55;4.70;;;;;;;12.01;59.14;98144.03;4933583;29;20438;-96
2023/01/17 07:19:51;;;;;;;10.43;4.10;;;;;;;11.83;59.62;98135.00;4896940;29;20036;-96
2023/01/17 07:22:30;;;;;;;5.97;4.28;;;;;;;11.88;59.33;98145.69;4918820;29;20054;-96
2023/01/17 07:32:15;;;;;;;6.00;3.83;;;;;;;11.81;60.15;98141.81;5007593;23;20055;-96
2023/01/17 07:35:31;;;;;;;6.55;3.67;;;;;;;12.06;59.64;98172.81;4989307;28;20029;-96
2023/01/17 07:38:04;;;;;;;42.60;20.33;;;;;;;11.91;59.94;98150.50;5005212;28;20030;-94
2023/01/17 07:40:30;;;;;;;19.27;5.80;;;;;;;12.10;59.59;98160.28;4988830;28;20038;-96
2023/01/17 07:43:12;;;;;;;;;;;;;;;;;;;;;
2023/01/17 07:49:49;;;;;;;;;;;;;;;;;;;;;
2023/01/17 07:52:28;;;;;;;8.20;4.47;;;;;;;12.51;58.64;98165.44;4875930;29;20141;-96
2023/01/17 07:55:14;;;;;;;;;;;;;;;;;;;;;
2023/01/17 07:58:04;;;;;;;8.43;4.07;;;;;;;12.41;58.64;98152.19;4881631;29;20475;-95
2023/01/17 08:00:42;;;;;;;;;;;;;;;;;;;;;
2023/01/17 08:03:30;;;;;;;10.73;3.75;;;;;;;12.49;57.69;98142.53;4900291;29;20088;-96
2023/01/17 08:06:03;;;;;;;9.52;3.88;;;;;;;12.51;58.08;98149.25;4871806;29;20024;-96
2023/01/17 08:08:28;;;;;;;9.95;4.03;;;;;;;12.71;57.75;98177.56;4852977;29;20462;-94
2023/01/17 08:10:54;;;;;;;15.95;9.63;;;;;;;12.58;57.74;98164.97;4866053;29;20090;-95
2023/01/17 08:13:20;;;;;;;21.77;9.98;;;;;;;12.74;57.12;98176.16;4858750;29;20177;-96
2023/01/17 08:15:50;;;;;;;7.53;5.20;;;;;;;12.83;56.96;98170.81;4936917;23;20043;-94
2023/01/17 08:18:19;;;;;;;6.80;3.10;;;;;;;12.64;57.11;98165.66;4966708;28;20041;-94
2023/01/17 08:29:22;;;;;;;5.03;3.53;;;;;;;12.92;56.45;98166.22;5009498;28;20046;-95
2023/01/17 08:31:50;;;;;;;7.40;3.55;;;;;;;13.13;55.76;98198.84;4972888;28;20030;-96
2023/01/17 08:34:30;;;;;;;;;;;;;;;;;;;;;
2023/01/17 08:37:05;;;;;;;9.15;2.42;;;;;;;13.18;54.76;98178.97;4981309;28;20133;-96
2023/01/17 08:39:36;;;;;;;7.55;3.10;;;;;;;13.18;54.64;98176.28;4939126;28;20410;-96
2023/01/17 08:42:32;;;;;;;5.40;3.28;;;;;;;13.10;55.07;98157.03;4974515;28;20034;-96
2023/01/17 08:44:58;;;;;;;4.53;3.00;;;;;;;13.21;54.89;98154.81;4957646;29;20581;-94
2023/01/17 08:47:26;;;;;;;7.82;4.47;;;;;;;13.33;54.16;98168.56;4964539;28;20029;-95
2023/01/17 08:50:01;;;;;;;4.00;2.75;;;;;;;13.43;53.88;98167.47;4950947;28;20034;-96
2023/01/17 08:52:27;;;;;;;6.75;3.28;;;;;;;13.65;53.33;98190.06;4967574;28;20030;-94
2023/01/17 08:55:08;;;;;;;4.60;2.80;;;;;;;13.52;53.25;98154.72;4963712;28;20035;-96
2023/01/17 08:57:34;;;;;;;10.25;3.22;;;;;;;13.62;53.54;98164.44;4975542;28;20069;-93
2023/01/17 08:59:59;;;;;;;8.82;5.40;;;;;;;13.82;53.17;98181.13;4954892;28;20506;-96
2023/01/17 09:03:01;;;;;;;11.38;3.85;;;;;;;13.58;53.08;98151.88;4973416;28;20043;-95
2023/01/17 09:05:34;;;;;;;5.93;2.70;;;;;;;13.56;53.35;98170.34;4966107;28;20066;-96
2023/01/17 09:08:00;;;;;;;9.20;3.00;;;;;;;13.51;53.21;98182.09;4962201;28;20027;-96
2023/01/17 09:10:26;;;;;;;4.55;2.60;;;;;;;13.54;53.19;98176.06;4944991;28;20035;-94
2023/01/17 09:12:51;;;;;;;6.28;2.63;;;;;;;13.63;52.99;98197.69;4957423;28;20535;-94
2023/01/17 09:15:19;;;;;;;5.95;2.97;;;;;;;13.62;52.99;98186.09;4965189;28;20022;-93
2023/01/17 09:17:48;;;;;;;6.07;3.13;;;;;;;13.75;53.11;98195.94;4950337;28;20037;-96
2023/01/17 09:20:13;;;;;;;6.97;2.78;;;;;;;13.83;52.85;98180.81;4952884;28;20026;-94
2023/01/17 09:22:54;;;;;;;;;;;;;;;;;;;;;
2023/01/17 09:25:22;;;;;;;8.60;4.55;;;;;;;14.09;52.25;98180.00;4982441;28;20110;-96
2023/01/17 09:27:57;;;;;;;15.80;8.38;;;;;;;13.91;51.96;98158.38;4972402;28;20051;-95
2023/01/17 09:30:23;;;;;;;7.32;3.33;;;;;;;13.82;52.49;98165.72;4945307;28;20125;-96
2023/01/17 09:32:52;;;;;;;9.85;3.83;;;;;;;13.92;52.35;98172.69;4947072;28;20057;-94
2023/01/17 09:35:18;;;;;;;10.35;3.80;;;;;;;13.90;52.56;98177.63;4944838;28;20130;-94
2023/01/17 09:37:50;;;;;;;6.70;3.60;;;;;;;13.84;52.45;98159.97;4939959;28;20026;-95
2023/01/17 09:40:18;;;;;;;;;;;;;;;14.12;52.30;98192.91;4951879;28;20751;-94
2023/01/17 09:42:44;;;;;;;8.05;3.83;;;;;;;14.06;52.05;98191.47;4966767;28;19918;-95
2023/01/17 09:45:49;;;;;;;;;;;;;;;;;;;;;
2023/01/17 09:48:24;;;;;;;5.47;3.10;;;;;;;13.97;51.96;98175.25;5011983;28;20118;-94
2023/01/17 09:50:58;;;;;;;4.88;2.40;;;;;;;14.09;51.78;98182.69;4959082;28;20037;-95
2023/01/17 09:53:24;;;;;;;8.50;4.53;;;;;;;14.15;52.04;98184.13;4952180;28;20030;-96
2023/01/17 09:55:53;;;;;;;6.50;2.75;;;;;;;14.02;52.13;98166.16;4960677;28;20076;-94
2023/01/17 09:58:20;;;;;;;5.05;3.08;;;;;;;13.98;52.20;98168.72;4976577;28;20088;-94
2023/01/17 10:00:50;;;;;;;10.43;3.08;;;;;;;14.00;52.73;98163.78;4964683;28;20543;-92
2023/01/17 10:04:00;;;;;;;7.85;3.25;;;;;;;14.13;52.40;98172.81;4973392;28;20022;-92
2023/01/17 10:07:24;;;;;;;9.50;3.20;;;;;;;14.27;51.80;98161.81;4982496;28;20501;-96
2023/01/17 13:04:29;;;;;;;;;;;;;;;;;;;;;
2023/01/17 13:07:26;;;;;;;5.10;1.50;;;;;;;15.62;45.64;98064.44;4950456;28;20119;-96
2023/01/17 13:18:55;;;;;;;4.63;1.70;;;;;;;15.23;45.89;98053.78;4963860;29;20043;-96
2023/01/17 13:21:47;;;;;;;3.10;2.00;;;;;;;15.42;46.39;98069.56;4949238;29;20062;-96
2023/01/17 13:24:16;;;;;;;3.70;1.60;;;;;;;15.31;46.23;98066.44;4961494;29;20051;-96
2023/01/17 13:27:07;;;;;;;7.70;2.30;;;;;;;15.44;46.25;98055.66;4963422;29;20031;-95
2023/01/17 13:30:27;;;;;;;4.95;2.03;;;;;;;15.23;46.20;98029.38;4943333;29;20446;-96
2023/01/17 13:34:05;;;;;;;6.10;2.20;;;;;;;15.34;47.09;98062.28;4875575;29;20076;-95
2023/01/17 13:37:03;;;;;;;;;;;;;;;;;;;;;
2023/01/17 13:40:12;;;;;;;;;;;;;;;;;;;;;
2023/01/17 13:42:55;;;;;;;7.70;2.00;;;;;;;14.89;47.50;98047.47;4905505;29;20119;-95
2023/01/17 13:46:02;;;;;;;7.28;2.50;;;;;;;15.10;47.06;98057.53;4949401;28;20039;-95
2023/01/17 13:48:39;;;;;;;4.63;2.20;;;;;;;15.32;47.23;98069.97;4932605;23;20051;-95
2023/01/17 13:51:06;;;;;;;7.50;2.50;;;;;;;15.21;46.99;98057.91;4927252;28;20035;-96
2023/01/17 13:53:44;;;;;;;7.82;3.95;;;;;;;15.29;46.58;98055.16;4929529;29;20047;-96
2023/01/17 13:56:30;;;;;;;9.10;2.80;;;;;;;15.44;46.89;98071.91;4915241;29;20023;-96
2023/01/17 13:59:20;;;;;;;5.63;2.72;;;;;;;15.46;45.79;98061.53;4931710;29;20031;-96
2023/01/17 14:01:51;;;;;;;9.10;3.50;;;;;;;15.53;45.95;98073.44;4939767;28;20031;-95
2023/01/17 14:04:23;;;;;;;7.47;3.50;;;;;;;15.44;46.55;98080.06;4944123;28;20053;-94
2023/01/17 14:07:11;;;;;;;;;;;;;;;15.45;46.41;98079.72;4944633;28;20505;-94
2023/01/17 14:09:51;;;;;;;4.57;2.05;;;;;;;15.31;46.46;98073.78;4948287;28;19914;-94
2023/01/17 14:12:34;;;;;;;;;;;;;;;;;;;;;
2023/01/17 14:15:00;;;;;;;6.85;4.93;;;;;;;15.24;46.53;98052.63;4961406;28;20401;-95
2023/01/17 14:17:36;;;;;;;6.70;4.40;;;;;;;15.24;46.59;98041.00;4929530;28;20061;-95
2023/01/17 14:20:04;;;;;;;7.30;3.85;;;;;;;15.44;46.17;98061.06;4926369;28;20067;-94
2023/01/17 14:22:45;;;;;;;6.20;3.90;;;;;;;15.26;46.16;98047.66;4977226;28;20019;-94
2023/01/17 14:25:11;;;;;;;6.43;2.83;;;;;;;15.40;45.55;98071.81;4927894;28;20074;-95
2023/01/17 14:27:54;;;;;;;5.80;2.53;;;;;;;15.29;46.05;98070.59;4954608;28;20113;-96
2023/01/17 14:30:40;;;;;;;7.97;2.65;;;;;;;15.18;46.56;98053.16;4924972;28;20066;-96
2023/01/17 14:33:40;;;;;;;5.35;2.63;;;;;;;15.24;45.93;98052.63;4944876;28;20035;-96
2023/01/17 14:36:24;;;;;;;5.00;2.58;;;;;;;15.27;46.66;98070.16;4936687;29;20035;-96
2023/01/17 14:38:49;;;;;;;10.40;3.85;;;;;;;15.03;46.43;98052.63;4935361;28;20374;-95
2023/01/17 14:41:20;;;;;;;6.32;2.72;;;;;;;15.06;47.00;98056.59;4930172;28;20024;-93
2023/01/17 14:43:46;;;;;;;8.10;2.75;;;;;;;14.92;46.79;98038.69;4942952;28;20067;-93
2023/01/17 14:46:27;;;;;;;8.18;3.72;;;;;;;15.20;46.85;98070.69;4941108;29;20042;-93
2023/01/17 14:49:23;;;;;;;5.85;3.80;;;;;;;15.10;46.70;98046.69;4917683;29;20048;-93
2023/01/17 14:52:01;;;;;;;6.10;3.08;;;;;;;15.03;47.02;98047.22;4954539;28;20045;-93
2023/01/17 14:54:27;;;;;;;5.20;2.92;;;;;;;15.06;46.93;98056.59;4947183;28;20047;-94
2023/01/17 14:57:26;;;;;;;8.93;3.05;;;;;;;14.97;47.05;98040.41;4923340;29;20477;-95
2023/01/17 15:00:12;;;;;;;6.70;3.25;;;;;;;15.07;47.10;98053.56;4944400;29;20037;-96
2023/01/17 15:02:45;;;;;;;6.30;3.40;;;;;;;14.89;47.49;98038.53;4940877;29;20487;-96
2023/01/17 15:08:13;;;;;;;;;;;;;;;;;;;;;
2023/01/17 15:11:26;;;;;;;8.95;4.88;;;;;;;14.82;47.63;98043.72;4959620;28;20113;-95
2023/01/17 15:13:53;;;;;;;;;;;;;;;14.98;47.97;98063.66;4967266;28;20133;-96
2023/01/17 15:16:25;;;;;;;9.25;3.78;;;;;;;14.97;47.87;98061.31;4975497;28;19953;-93
2023/01/17 15:19:12;;;;;;;;;;;;;;;;;;;;;
2023/01/17 15:21:41;;;;;;;8.20;3.05;;;;;;;14.48;48.90;98024.56;4988658;28;20097;-96
2023/01/17 15:24:45;;;;;;;20.70;4.63;;;;;;;14.65;49.14;98036.47;4968355;28;20038;-96
2023/01/17 15:30:30;;;;;;;8.13;4.10;;;;;;;14.65;49.07;98029.16;4952375;29;20122;-96
2023/01/17 15:33:25;;;;;;;4.82;2.40;;;;;;;14.61;49.19;98003.84;4916221;29;20042;-96
2023/01/17 15:36:33;;;;;;;4.20;2.42;;;;;;;14.55;49.55;98021.38;4908790;29;20107;-96
2023/01/17 15:39:24;;;;;;;7.65;2.20;;;;;;;14.53;50.33;98035.22;4899108;29;20036;-96
2023/01/17 15:41:53;;;;;;;7.30;2.40;;;;;;;14.43;51.49;98043.72;4884337;29;20043;-96
2023/01/17 15:44:35;;;;;;;9.85;2.70;;;;;;;14.57;51.36;98056.25;4886778;29;20338;-95
2023/01/17 15:47:01;;;;;;;8.57;3.22;;;;;;;14.61;51.72;98049.88;4904359;29;20101;-94
2023/01/17 15:49:28;;;;;;;6.32;2.90;;;;;;;14.55;51.81;98053.88;4902887;29;20036;-93
2023/01/17 15:51:56;;;;;;;8.23;3.33;;;;;;;14.55;52.42;98067.41;4884781;29;20136;-95
2023/01/17 15:54:25;;;;;;;4.72;3.05;;;;;;;14.32;52.74;98047.94;4905843;29;20042;-96
2023/01/17 15:57:16;;;;;;;7.45;2.17;;;;;;;14.45;52.99;98073.19;4942643;29;20031;-96
2023/01/17 16:00:06;;;;;;;6.22;2.22;;;;;;;14.32;53.55;98073.09;4943522;29;20114;-96
2023/01/17 16:02:42;;;;;;;5.72;1.95;;;;;;;14.11;53.77;98042.41;4940455;29;20027;-94
2023/01/17 16:05:22;;;;;;;6.35;2.63;;;;;;;14.39;53.72;98071.78;4940603;29;20031;-95
2023/01/17 16:07:55;;;;;;;3.63;2.28;;;;;;;14.10;54.18;98047.03;4998449;28;20108;-95
2023/01/17 16:10:22;;;;;;;6.22;2.65;;;;;;;14.40;53.87;98071.47;4949461;28;20027;-96
2023/01/17 16:12:51;;;;;;;6.45;2.60;;;;;;;14.20;53.93;98043.19;4963823;28;20041;-95
2023/01/17 16:15:18;;;;;;;8.75;2.90;;;;;;;14.25;54.44;98064.66;4947813;28;20117;-96
2023/01/17 16:17:46;;;;;;;9.40;3.53;;;;;;;14.19;54.54;98057.84;4964104;28;20035;-96
2023/01/17 16:20:38;;;;;;;7.07;2.83;;;;;;;14.26;54.69;98070.91;4947835;28;20069;-94
2023/01/17 16:23:08;;;;;;;6.75;2.60;;;;;;;14.09;54.61;98053.59;4962599;28;20038;-95
2023/01/17 16:25:34;;;;;;;6.40;2.75;;;;;;;14.03;54.62;98043.25;4947537;28;20084;-95
2023/01/17 16:28:00;;;;;;;6.18;2.72;;;;;;;14.19;54.96;98071.38;4963564;28;20042;-95
2023/01/17 16:30:26;;;;;;;6.53;2.75;;;;;;;14.02;54.60;98045.16;4947382;28;20041;-96
2023/01/17 16:32:51;;;;;;;12.75;5.90;;;;;;;14.20;54.56;98066.78;4945967;28;20030;-96
2023/01/17 16:35:19;;;;;;;5.43;2.28;;;;;;;13.89;55.02;98048.88;4948063;28;20026;-95
2023/01/17 16:38:12;;;;;;;8.43;3.97;;;;;;;14.21;54.77;98079.97;4949795;28;20069;-94
2023/01/17 16:40:45;;;;;;;9.75;2.85;;;;;;;14.01;54.90;98057.13;4963504;28;20034;-93
2023/01/17 16:43:18;;;;;;;7.28;3.53;;;;;;;14.02;55.46;98093.09;4948611;28;20563;-96
2023/01/17 16:45:48;;;;;;;5.47;2.80;;;;;;;13.93;55.75;98082.28;4947271;28;20412;-93
2023/01/17 16:48:14;;;;;;;11.05;3.40;;;;;;;13.95;55.13;98066.53;4945259;28;20113;-92
2023/01/17 16:50:49;;;;;;;5.95;2.67;;;;;;;13.87;55.18;98053.81;4960923;28;20536;-92
2023/01/17 16:53:22;;;;;;;5.97;3.00;;;;;;;14.12;54.58;98081.91;4946608;28;20040;-94
2023/01/17 16:55:48;;;;;;;9.48;3.80;;;;;;;13.94;55.05;98075.75;4945235;28;20120;-91
2023/01/17 16:58:14;;;;;;;9.30;3.97;;;;;;;14.02;54.92;98077.66;4961552;28;20034;-93
2023/01/17 17:00:39;;;;;;;7.03;3.28;;;;;;;14.08;55.00;98091.81;4947539;28;20026;-94
2023/01/17 17:03:05;;;;;;;8.38;3.22;;;;;;;14.01;54.55;98067.94;4935286;28;20135;-93
2023/01/17 17:05:32;;;;;;;7.38;2.95;;;;;;;14.08;54.55;98056.63;4943304;28;20141;-94
2023/01/17 17:07:58;;;;;;;5.28;2.85;;;;;;;14.21;54.36;98085.38;4927188;28;20109;-95
2023/01/17 17:10:26;;;;;;;7.90;2.67;;;;;;;14.22;54.35;98089.69;4943824;28;20030;-95